createdAt,value
2023-04-02T00:00:05.787Z,101927.81
2023-04-02T00:02:34.890Z,101931.75
2023-04-02T00:05:50.686Z,101934.94
2023-04-02T00:08:26.472Z,101916.25
2023-04-02T00:10:56.968Z,101939.66
2023-04-02T00:13:31.161Z,101945.56
2023-04-02T00:16:03.752Z,101944.50
2023-04-02T00:18:33.615Z,101950.25
2023-04-02T00:21:10.385Z,101934.56
2023-04-02T00:23:40.139Z,101957.53
2023-04-02T00:26:21.929Z,101960.88
2023-04-02T00:28:50.908Z,101930.09
2023-04-02T00:31:21.646Z,101972.66
2023-04-02T00:33:51.012Z,101976.00
2023-04-02T00:36:20.827Z,101975.69
2023-04-02T00:38:49.705Z,101971.31
2023-04-02T00:41:23.209Z,101978.88
2023-04-02T00:43:53.976Z,101982.81
2023-04-02T00:46:30.249Z,101848.41
2023-04-02T00:49:02.386Z,101994.31
2023-04-02T00:51:34.022Z,101993.25
2023-04-02T00:54:05.883Z,102002.50
2023-04-02T00:56:38.942Z,102010.66
2023-04-02T00:59:20.759Z,101759.47
2023-04-02T01:01:55.816Z,102009.16
2023-04-02T01:04:35.244Z,102022.59
2023-04-02T01:07:06.850Z,102024.13
2023-04-02T01:10:02.106Z,102021.25
2023-04-02T01:12:53.649Z,102028.97
2023-04-02T01:15:27.146Z,102046.50
2023-04-02T01:18:18.848Z,102038.31
2023-04-02T01:21:04.308Z,101985.81
2023-04-02T01:23:40.098Z,102044.97
2023-04-02T01:26:16.950Z,101953.78
2023-04-02T01:29:01.034Z,101896.41
2023-04-02T01:31:33.277Z,102056.47
2023-04-02T01:34:03.553Z,102059.78
2023-04-02T01:36:42.851Z,102062.94
2023-04-02T01:39:26.414Z,102026.13
2023-04-02T01:42:03.022Z,102065.06
2023-04-02T01:44:38.870Z,102074.28
2023-04-02T01:47:12.055Z,102090.59
2023-04-02T01:49:41.286Z,102086.22
2023-04-02T01:52:09.581Z,102083.38
2023-04-02T01:54:38.879Z,102088.50
2023-04-02T01:57:07.158Z,101952.06
2023-04-02T01:59:39.019Z,102097.56
2023-04-02T02:02:08.948Z,102097.56
2023-04-02T02:04:37.141Z,102093.03
2023-04-02T02:07:06.115Z,102103.13
2023-04-02T02:09:36.763Z,102104.78
2023-04-02T02:12:06.728Z,102119.13
2023-04-02T02:14:36.049Z,102109.47
2023-04-02T02:17:13.539Z,102056.09
2023-04-02T02:19:46.837Z,102035.22
2023-04-02T02:22:28.454Z,102125.31
2023-04-02T02:24:58.308Z,102039.72
2023-04-02T02:27:46.728Z,102125.91
2023-04-02T02:30:18.854Z,102060.28
2023-04-02T02:32:58.549Z,102075.38
2023-04-02T02:35:31.213Z,102132.22
2023-04-02T02:38:22.954Z,102135.56
2023-04-02T02:40:55.119Z,102148.97
2023-04-02T02:43:24.565Z,102149.72
2023-04-02T02:45:56.867Z,102174.16
2023-04-02T02:48:29.740Z,102168.13
2023-04-02T02:50:59.033Z,102160.13
2023-04-02T02:53:26.927Z,102158.16
2023-04-02T02:55:59.671Z,102171.13
2023-04-02T02:58:33.579Z,102137.53
2023-04-02T03:01:04.444Z,102148.88
2023-04-02T03:03:35.210Z,102175.94
2023-04-02T03:06:06.562Z,102191.34
2023-04-02T03:08:40.402Z,102180.75
2023-04-02T03:11:13.778Z,102200.22
2023-04-02T03:13:47.386Z,102168.28
2023-04-02T03:16:22.632Z,102203.38
2023-04-02T03:18:56.835Z,102206.69
2023-04-02T03:21:32.692Z,102187.72
2023-04-02T03:24:03.215Z,102150.97
2023-04-02T03:26:37.096Z,102227.22
2023-04-02T03:29:15.202Z,102194.84
2023-04-02T03:31:49.311Z,102226.31
2023-04-02T03:34:22.134Z,102233.09
2023-04-02T03:36:58.151Z,102240.63
2023-04-02T03:39:32.782Z,102245.59
2023-04-02T03:42:08.574Z,102219.25
2023-04-02T03:44:39.927Z,102230.44
2023-04-02T03:47:17.575Z,102195.59
2023-04-02T03:49:51.442Z,102171.81
2023-04-02T03:52:25.053Z,102264.91
2023-04-02T03:54:54.639Z,102258.13
2023-04-02T03:57:32.311Z,102266.06
2023-04-02T04:00:05.914Z,102273.19
2023-04-02T04:02:44.052Z,102275.59
2023-04-02T04:05:24.479Z,102289.91
2023-04-02T04:07:56.810Z,102286.09
2023-04-02T04:10:29.978Z,102253.22
2023-04-02T04:13:04.976Z,102293.63
2023-04-02T04:15:37.985Z,102281.34
2023-04-02T04:18:20.380Z,102222.84
2023-04-02T04:20:56.949Z,102310.69
2023-04-02T04:23:31.496Z,102314.31
2023-04-02T04:26:05.508Z,102319.44
2023-04-02T04:28:42.062Z,102317.78
2023-04-02T04:31:21.156Z,102317.03
2023-04-02T04:33:56.103Z,102319.59
2023-04-02T04:36:28.718Z,102324.75
2023-04-02T04:39:00.322Z,102282.00
2023-04-02T04:41:32.974Z,102328.53
2023-04-02T04:44:07.096Z,102327.63
2023-04-02T04:46:41.316Z,102338.22
2023-04-02T04:49:18.480Z,102235.22
2023-04-02T04:51:53.626Z,102322.59
2023-04-02T04:54:21.940Z,102350.94
2023-04-02T04:56:56.513Z,102263.81
2023-04-02T04:59:28.785Z,102252.91
2023-04-02T05:02:03.232Z,102360.03
2023-04-02T05:04:36.411Z,102362.03
2023-04-02T05:07:09.308Z,102364.91
2023-04-02T05:09:41.130Z,102366.91
2023-04-02T05:12:18.653Z,102370.53
2023-04-02T05:14:52.338Z,102376.00
2023-04-02T05:17:26.868Z,102304.75
2023-04-02T05:20:02.242Z,102395.53
2023-04-02T05:22:39.423Z,102380.28
2023-04-02T05:25:18.594Z,102336.53
2023-04-02T05:27:52.688Z,102393.34
2023-04-02T05:30:49.521Z,102393.81
2023-04-02T05:33:23.536Z,102395.97
2023-04-02T05:36:02.119Z,102350.97
2023-04-02T05:38:33.305Z,102412.00
2023-04-02T05:41:04.280Z,102404.00
2023-04-02T05:43:35.612Z,102371.94
2023-04-02T05:46:14.497Z,102210.31
2023-04-02T05:48:44.525Z,102406.03
2023-04-02T05:51:20.756Z,102365.47
2023-04-02T05:53:53.671Z,102400.44
2023-04-02T05:56:24.853Z,102416.59
2023-04-02T05:58:56.199Z,102417.06
2023-04-02T06:01:47.778Z,102418.75
2023-04-02T06:04:24.081Z,102413.91
2023-04-02T06:06:59.258Z,102431.38
2023-04-02T06:09:36.166Z,102435.50
2023-04-02T06:12:17.108Z,102429.31
2023-04-02T06:14:48.121Z,102430.84
2023-04-02T06:17:19.089Z,102433.47
2023-04-02T06:19:47.958Z,102436.81
2023-04-02T06:22:28.910Z,102441.06
2023-04-02T06:25:01.348Z,102419.13
2023-04-02T06:27:30.381Z,102446.09
2023-04-02T06:30:03.677Z,102456.56
2023-04-02T06:32:32.086Z,102449.47
2023-04-02T06:35:00.845Z,102454.63
2023-04-02T06:37:34.735Z,102459.19
2023-04-02T06:40:05.006Z,102459.19
2023-04-02T06:42:38.241Z,102460.09
2023-04-02T06:45:07.635Z,102354.53
2023-04-02T06:47:38.759Z,102227.56
2023-04-02T06:50:14.087Z,102294.75
2023-04-02T06:52:47.657Z,102482.34
2023-04-02T06:55:32.991Z,102473.41
2023-04-02T06:58:01.054Z,102473.75
2023-04-02T07:00:37.128Z,102472.53
2023-04-02T07:03:09.803Z,102431.03
2023-04-02T07:05:38.877Z,102465.75
2023-04-02T07:08:09.902Z,102357.91
2023-04-02T07:10:38.038Z,102478.31
2023-04-02T07:13:09.317Z,102473.25
2023-04-02T07:15:37.548Z,102394.00
2023-04-02T07:18:05.890Z,102467.78
2023-04-02T07:20:37.645Z,102476.94
2023-04-02T07:23:06.093Z,102448.06
2023-04-02T07:25:35.616Z,102468.31
2023-04-02T07:28:04.136Z,102481.25
2023-04-02T07:30:32.058Z,102478.69
2023-04-02T07:33:00.185Z,102464.78
2023-04-02T07:35:28.363Z,102495.47
2023-04-02T07:37:57.316Z,102430.41
2023-04-02T07:40:25.895Z,102487.25
2023-04-02T07:42:55.338Z,102493.06
2023-04-02T07:45:23.163Z,102491.91
2023-04-02T07:47:54.508Z,102499.91
2023-04-02T07:50:22.766Z,102458.22
2023-04-02T07:52:50.833Z,102460.53
2023-04-02T07:55:19.242Z,102493.88
2023-04-02T07:57:52.435Z,102482.69
2023-04-02T08:00:22.700Z,102443.13
2023-04-02T08:02:51.109Z,102511.28
2023-04-02T08:05:19.418Z,102505.34
2023-04-02T08:07:55.171Z,102473.03
2023-04-02T08:10:23.955Z,102519.78
2023-04-02T08:12:52.096Z,102481.50
2023-04-02T08:15:24.067Z,102528.47
2023-04-02T08:17:52.036Z,102512.38
2023-04-02T08:20:22.470Z,102447.47
2023-04-02T08:22:51.542Z,102501.09
2023-04-02T08:25:19.504Z,102504.44
2023-04-02T08:27:48.386Z,102538.03
2023-04-02T08:30:17.893Z,102438.00
2023-04-02T08:32:47.252Z,102551.59
2023-04-02T08:35:17.779Z,102543.84
2023-04-02T08:37:45.745Z,102558.88
2023-04-02T08:40:24.133Z,102542.34
2023-04-02T08:43:09.056Z,102549.25
2023-04-02T08:45:48.677Z,102487.75
2023-04-02T08:48:21.585Z,102554.91
2023-04-02T08:50:51.848Z,102563.84
2023-04-02T08:53:22.470Z,102565.66
2023-04-02T08:56:00.064Z,102522.59
2023-04-02T08:58:41.568Z,102564.59
2023-04-02T09:01:20.202Z,102577.47
2023-04-02T09:03:52.072Z,102501.63
2023-04-02T09:06:22.434Z,102580.00
2023-04-02T09:08:52.137Z,102519.13
2023-04-02T09:11:25.261Z,102593.81
2023-04-02T09:13:58.245Z,102592.03
2023-04-02T09:16:39.172Z,102572.63
2023-04-02T09:19:17.079Z,102585.38
2023-04-02T09:21:49.076Z,102607.34
2023-04-02T09:24:17.343Z,102522.50
2023-04-02T09:26:47.639Z,102525.13
2023-04-02T09:29:37.974Z,102539.00
2023-04-02T09:32:19.914Z,102522.44
2023-04-02T09:34:49.462Z,102593.38
2023-04-02T09:37:19.629Z,102616.09
2023-04-02T09:39:47.525Z,102559.06
2023-04-02T09:42:31.694Z,102619.78
2023-04-02T09:45:14.815Z,102536.03
2023-04-02T09:47:43.390Z,102580.66
2023-04-02T09:50:30.928Z,102626.06
2023-04-02T09:52:59.455Z,102630.81
2023-04-02T09:55:30.868Z,102594.88
2023-04-02T09:58:12.605Z,102630.41
2023-04-02T10:00:42.263Z,102627.69
2023-04-02T10:03:24.745Z,102603.69
2023-04-02T10:06:08.317Z,102626.03
2023-04-02T10:08:37.898Z,102526.38
2023-04-02T10:11:09.883Z,102633.28
2023-04-02T10:13:47.441Z,102596.38
2023-04-02T10:16:20.634Z,102618.97
2023-04-02T10:18:52.559Z,102662.38
2023-04-02T10:21:27.046Z,102648.28
2023-04-02T10:23:55.682Z,102653.78
2023-04-02T10:26:50.942Z,102656.06
2023-04-02T10:29:38.138Z,102663.94
2023-04-02T10:32:09.960Z,102630.97
2023-04-02T10:34:48.110Z,102674.81
2023-04-02T10:37:46.145Z,102556.41
2023-04-02T10:40:22.359Z,102676.38
2023-04-02T10:42:59.982Z,102681.81
2023-04-02T10:45:44.171Z,102685.00
2023-04-02T10:48:21.111Z,102695.50
2023-04-02T10:50:56.586Z,102626.81
2023-04-02T10:53:34.512Z,102695.84
2023-04-02T10:56:11.505Z,102712.69
2023-04-02T10:58:47.587Z,102589.88
2023-04-02T11:01:21.286Z,102714.00
2023-04-02T11:03:59.197Z,102655.44
2023-04-02T11:06:33.619Z,102715.38
2023-04-02T11:09:06.359Z,102724.03
2023-04-02T11:11:39.855Z,102724.41
2023-04-02T11:14:15.019Z,102703.94
2023-04-02T11:16:44.813Z,102726.84
2023-04-02T11:19:25.386Z,102682.88
2023-04-02T11:22:00.290Z,102749.56
2023-04-02T11:24:39.711Z,102752.38
2023-04-02T11:27:17.043Z,102755.16
2023-04-02T11:29:46.829Z,102763.44
2023-04-02T11:32:33.368Z,102758.47
2023-04-02T11:35:07.070Z,102768.00
2023-04-02T11:37:38.498Z,102708.63
2023-04-02T11:40:44.724Z,102769.41
2023-04-02T11:43:50.166Z,102785.59
2023-04-02T11:46:40.110Z,102787.38
2023-04-02T11:49:38.134Z,102787.19
2023-04-02T11:52:21.020Z,102802.38
2023-04-02T11:54:58.166Z,102720.22
2023-04-02T11:57:51.000Z,102806.13
2023-04-02T12:00:54.350Z,102806.53
2023-04-02T12:03:38.419Z,102791.03
2023-04-02T12:06:13.559Z,102820.25
2023-04-02T12:08:57.685Z,102804.84
2023-04-02T12:11:34.847Z,102817.38
2023-04-02T12:14:08.859Z,102825.97
2023-04-02T12:16:37.130Z,102764.16
2023-04-02T12:19:09.859Z,102826.31
2023-04-02T12:21:39.110Z,102834.19
2023-04-02T12:24:08.100Z,102789.78
2023-04-02T12:26:38.417Z,102833.69
2023-04-02T12:29:18.797Z,102827.47
2023-04-02T12:31:48.090Z,102819.97
2023-04-02T12:34:18.226Z,102826.97
2023-04-02T12:36:54.166Z,102847.78
2023-04-02T12:39:22.390Z,102777.03
2023-04-02T12:41:50.503Z,102849.56
2023-04-02T12:44:22.084Z,102771.66
2023-04-02T12:46:51.326Z,102855.25
2023-04-02T12:49:29.516Z,102842.19
2023-04-02T12:51:58.655Z,102847.72
2023-04-02T12:54:27.084Z,102844.34
2023-04-02T12:56:56.706Z,102829.84
2023-04-02T12:59:33.734Z,102852.78
2023-04-02T13:02:03.018Z,102863.44
2023-04-02T13:04:31.429Z,102830.28
2023-04-02T13:06:59.371Z,102863.78
2023-04-02T13:09:34.920Z,102847.00
2023-04-02T13:12:03.596Z,102762.69
2023-04-02T13:14:33.208Z,102851.06
2023-04-02T13:17:01.133Z,102862.75
2023-04-02T13:19:31.793Z,102866.50
2023-04-02T13:22:01.319Z,102866.72
2023-04-02T13:24:31.235Z,102871.97
2023-04-02T13:27:01.443Z,102843.88
2023-04-02T13:29:30.964Z,102873.00
2023-04-02T13:32:02.463Z,102807.94
2023-04-02T13:34:30.987Z,102880.31
2023-04-02T13:37:02.150Z,102735.06
2023-04-02T13:39:30.732Z,102875.44
2023-04-02T13:42:00.488Z,102852.50
2023-04-02T13:44:30.633Z,102745.72
2023-04-02T13:47:00.978Z,102876.75
2023-04-02T13:49:29.339Z,102840.00
2023-04-02T13:51:59.040Z,102774.59
2023-04-02T13:54:31.402Z,102892.75
2023-04-02T13:56:59.261Z,102888.69
2023-04-02T13:59:27.740Z,102841.00
2023-04-02T14:01:59.171Z,102899.22
2023-04-02T14:04:33.081Z,102871.50
2023-04-02T14:07:26.036Z,102909.47
2023-04-02T14:10:04.112Z,102899.06
2023-04-02T14:12:42.641Z,102912.09
2023-04-02T14:15:21.957Z,102899.81
2023-04-02T14:18:04.544Z,102849.53
2023-04-02T14:20:43.366Z,102908.28
2023-04-02T14:23:24.556Z,102909.06
2023-04-02T14:26:01.745Z,102885.81
2023-04-02T14:28:43.107Z,102922.38
2023-04-02T14:31:20.871Z,102919.34
2023-04-02T14:33:58.795Z,102854.19
2023-04-02T14:36:38.464Z,102921.78
2023-04-02T14:39:14.213Z,102920.97
2023-04-02T14:41:50.957Z,102871.84
2023-04-02T14:44:23.929Z,102944.84
2023-04-02T14:46:59.398Z,102932.31
2023-04-02T14:49:32.682Z,102887.50
2023-04-02T14:52:06.249Z,102941.16
2023-04-02T14:54:37.585Z,102952.31
2023-04-02T14:57:11.385Z,102941.34
2023-04-02T14:59:47.871Z,102947.41
2023-04-02T15:02:25.172Z,102908.41
2023-04-02T15:05:01.191Z,102961.09
2023-04-02T15:07:38.305Z,102837.31
2023-04-02T15:10:15.611Z,102954.50
2023-04-02T15:12:46.466Z,102967.13
2023-04-02T15:15:33.064Z,102949.94
2023-04-02T15:18:10.676Z,102756.88
2023-04-02T15:20:44.328Z,102905.44
2023-04-02T15:23:23.221Z,102967.69
2023-04-02T15:26:02.310Z,102994.41
2023-04-02T15:28:35.872Z,102994.56
2023-04-02T15:31:11.422Z,102999.66
2023-04-02T15:33:44.820Z,103010.44
2023-04-02T15:36:41.467Z,102935.69
2023-04-02T15:39:29.950Z,103015.38
2023-04-02T15:42:08.915Z,103010.84
2023-04-02T15:44:45.497Z,102920.94
2023-04-02T15:47:22.280Z,103008.06
2023-04-02T15:50:00.504Z,102985.16
2023-04-02T15:52:37.100Z,102989.50
2023-04-02T15:55:21.002Z,103016.66
2023-04-02T15:58:16.653Z,103009.25
2023-04-02T16:00:51.264Z,102998.38
2023-04-02T16:03:40.775Z,102937.06
2023-04-02T16:06:21.688Z,103034.53
2023-04-02T16:08:59.534Z,103021.22
2023-04-02T16:11:29.636Z,103027.06
2023-04-02T16:14:06.200Z,102962.88
2023-04-02T16:16:36.135Z,103037.41
2023-04-02T16:19:16.171Z,103043.56
2023-04-02T16:21:50.063Z,103054.97
2023-04-02T16:24:18.031Z,103053.84
2023-04-02T16:26:58.037Z,102924.56
2023-04-02T16:29:50.993Z,103064.97
2023-04-02T16:32:39.229Z,103066.19
2023-04-02T16:37:57.542Z,103073.59
2023-04-02T16:40:35.293Z,103014.59
2023-04-02T16:43:16.528Z,103066.88
2023-04-02T16:45:54.818Z,103070.63
2023-04-02T16:48:36.184Z,103019.38
2023-04-02T16:51:12.863Z,103095.00
2023-04-02T16:54:01.003Z,103099.81
2023-04-02T16:56:43.639Z,103103.13
2023-04-02T16:59:21.081Z,103115.25
2023-04-02T17:01:58.146Z,103111.66
2023-04-02T17:05:07.313Z,103119.72
2023-04-02T17:07:38.112Z,103128.53
2023-04-02T17:10:24.463Z,103126.16
2023-04-02T17:13:02.725Z,103145.44
2023-04-02T17:15:39.068Z,103141.50
2023-04-02T17:18:15.033Z,103147.31
2023-04-02T17:20:43.183Z,103146.13
2023-04-02T17:23:14.489Z,102973.63
2023-04-02T17:25:49.635Z,102969.63
2023-04-02T17:28:25.598Z,103162.41
2023-04-02T17:30:57.446Z,103159.66
2023-04-02T17:33:27.398Z,103153.41
2023-04-02T17:36:23.819Z,103121.84
2023-04-02T17:38:59.762Z,103160.97
2023-04-02T17:41:35.711Z,103167.97
2023-04-02T17:44:11.550Z,103173.56
2023-04-02T17:46:49.770Z,102952.84
2023-04-02T17:49:26.164Z,103149.44
2023-04-02T17:51:58.824Z,103182.16
2023-04-02T17:54:39.570Z,103179.84
2023-04-02T17:57:31.601Z,103190.28
2023-04-02T18:00:11.057Z,103157.50
2023-04-02T18:03:03.626Z,103188.69
2023-04-02T18:05:38.017Z,103189.56
2023-04-02T18:08:16.061Z,103093.19
2023-04-02T18:10:54.408Z,103148.31
2023-04-02T18:13:34.751Z,103117.50
2023-04-02T18:16:14.782Z,103200.53
2023-04-02T18:18:55.041Z,103206.72
2023-04-02T18:21:30.980Z,103200.91
2023-04-02T18:24:16.101Z,103202.06
2023-04-02T18:26:53.799Z,103106.44
2023-04-02T18:29:31.406Z,103215.66
2023-04-02T18:32:08.852Z,103177.69
2023-04-02T18:34:50.408Z,103121.84
2023-04-02T18:37:24.886Z,103226.50
2023-04-02T18:40:10.141Z,103228.91
2023-04-02T18:42:54.407Z,103066.72
2023-04-02T18:45:30.019Z,103088.91
2023-04-02T18:48:07.964Z,103236.84
2023-04-02T18:50:41.021Z,103231.38
2023-04-02T18:53:14.102Z,103235.28
2023-04-02T18:55:47.598Z,103202.31
2023-04-02T18:58:19.599Z,103208.66
2023-04-02T19:00:49.230Z,103251.25
2023-04-02T19:03:25.249Z,103250.91
2023-04-02T19:05:58.185Z,103123.53
2023-04-02T19:08:32.347Z,103245.47
2023-04-02T19:11:03.314Z,103246.66
2023-04-02T19:13:31.501Z,103265.44
2023-04-02T19:16:26.084Z,103263.09
2023-04-02T19:19:06.829Z,103152.00
2023-04-02T19:21:43.656Z,103262.41
2023-04-02T19:24:30.143Z,103266.31
2023-04-02T19:27:05.114Z,103266.72
2023-04-02T19:29:45.335Z,103261.22
2023-04-02T19:32:19.567Z,103264.22
2023-04-02T19:34:54.894Z,103264.59
2023-04-02T19:37:30.762Z,103263.53
2023-04-02T19:40:12.905Z,103264.09
2023-04-02T19:42:48.180Z,103269.06
2023-04-02T19:45:31.041Z,103246.25
2023-04-02T19:48:01.961Z,103260.03
2023-04-02T19:50:30.468Z,103239.94
2023-04-02T19:53:00.142Z,103286.81
2023-04-02T19:55:29.392Z,103101.69
2023-04-02T19:58:08.385Z,103141.34
2023-04-02T20:00:41.186Z,103290.38
2023-04-02T20:03:09.056Z,103294.25
2023-04-02T20:05:37.189Z,103172.81
2023-04-02T20:08:07.087Z,103271.03
2023-04-02T20:10:35.110Z,103282.22
2023-04-02T20:13:03.225Z,103204.03
2023-04-02T20:15:32.440Z,103200.22
2023-04-02T20:18:00.599Z,103304.66
2023-04-02T20:20:28.591Z,103304.47
2023-04-02T20:22:56.576Z,103300.47
2023-04-02T20:25:26.138Z,103296.97
2023-04-02T20:27:54.160Z,103129.03
2023-04-02T20:30:25.312Z,103316.84
2023-04-02T20:32:59.441Z,103266.63
2023-04-02T20:35:29.931Z,103047.09
2023-04-02T20:38:01.131Z,103316.50
2023-04-02T20:40:32.790Z,103348.34
2023-04-02T20:43:14.052Z,103313.97
2023-04-02T20:45:46.977Z,103061.38
2023-04-02T20:48:23.180Z,103307.56
2023-04-02T20:50:57.987Z,103143.22
2023-04-02T20:53:27.921Z,103236.84
2023-04-02T20:56:08.130Z,103318.97
2023-04-02T20:58:37.401Z,103272.97
2023-04-02T21:01:12.351Z,103309.06
2023-04-02T21:03:41.786Z,102979.63
2023-04-02T21:06:16.218Z,102582.66
2023-04-02T21:08:45.059Z,102848.13
2023-04-02T21:11:18.732Z,103071.91
2023-04-02T21:13:48.189Z,102518.97
2023-04-02T21:16:19.940Z,102851.03
2023-04-02T21:18:51.022Z,103311.16
2023-04-02T21:21:20.725Z,102574.25
2023-04-02T21:23:49.332Z,103319.59
2023-04-02T21:26:19.461Z,103319.44
2023-04-02T21:28:47.562Z,103182.50
2023-04-02T21:31:19.762Z,103262.22
2023-04-02T21:33:50.393Z,103264.25
2023-04-02T21:36:21.699Z,103185.09
2023-04-02T21:38:51.623Z,103318.19
2023-04-02T21:41:23.367Z,103250.19
2023-04-02T21:43:52.061Z,103327.19
2023-04-02T21:46:22.568Z,103160.22
2023-04-02T21:48:51.812Z,103303.16
2023-04-02T21:51:22.047Z,103327.00
2023-04-02T21:53:50.547Z,103331.25
2023-04-02T21:56:22.776Z,103326.66
2023-04-02T21:58:51.959Z,103326.47
2023-04-02T22:01:27.411Z,103270.19
2023-04-02T22:03:56.888Z,103304.09
2023-04-02T22:06:26.883Z,103329.97
2023-04-02T22:08:56.412Z,103331.47
2023-04-02T22:11:29.004Z,103327.06
2023-04-02T22:13:57.366Z,103325.22
2023-04-02T22:16:27.595Z,103273.50
2023-04-02T22:18:57.513Z,103323.19
2023-04-02T22:21:26.577Z,103332.38
2023-04-02T22:23:54.729Z,103321.94
2023-04-02T22:26:25.075Z,103342.69
2023-04-02T22:28:53.100Z,103243.44
2023-04-02T22:31:22.572Z,103307.66
2023-04-02T22:33:50.988Z,103329.63
2023-04-02T22:36:20.039Z,103256.50
2023-04-02T22:38:48.080Z,103324.88
2023-04-02T22:41:18.206Z,103329.84
2023-04-02T22:43:47.659Z,103332.03
2023-04-02T22:46:16.998Z,103336.09
2023-04-02T22:48:48.336Z,103189.25
2023-04-02T22:51:18.283Z,103336.47
2023-04-02T22:53:46.544Z,103334.44
2023-04-02T22:56:17.152Z,103328.38
2023-04-02T22:58:45.598Z,103336.09
2023-04-02T23:01:17.595Z,103335.72
2023-04-02T23:03:46.168Z,103291.16
2023-04-02T23:06:19.113Z,103313.91
2023-04-02T23:08:47.485Z,103340.34
2023-04-02T23:11:17.386Z,103346.38
2023-04-02T23:13:48.159Z,103335.94
2023-04-02T23:16:18.212Z,103339.41
2023-04-02T23:18:48.042Z,103336.66
2023-04-02T23:21:16.915Z,103337.94
2023-04-02T23:23:44.992Z,103344.75
2023-04-02T23:26:15.020Z,103350.63
2023-04-02T23:28:43.667Z,103355.94
2023-04-02T23:31:14.418Z,103346.94
2023-04-02T23:33:44.049Z,103279.28
2023-04-02T23:36:22.344Z,103353.56
2023-04-02T23:38:51.946Z,103351.53
2023-04-02T23:41:19.967Z,103326.78
2023-04-02T23:43:47.878Z,103151.47
2023-04-02T23:46:15.802Z,103360.16
2023-04-02T23:48:46.725Z,103299.28
2023-04-02T23:51:14.813Z,103355.38
2023-04-02T23:53:43.332Z,103358.69
2023-04-02T23:56:11.893Z,103351.53
2023-04-02T23:58:40.498Z,103344.78
